sensor_id;sensor_type;location;lat;lon;timestamp;temperature;humidity
8338;DHT22;4206;48.634;9.516;2023-04-03T00:00:40;3.30;99.90
8338;DHT22;4206;48.634;9.516;2023-04-03T00:03:07;3.30;99.90
8338;DHT22;4206;48.634;9.516;2023-04-03T00:05:35;3.30;99.90
8338;DHT22;4206;48.634;9.516;2023-04-03T00:08:03;3.20;99.90
8338;DHT22;4206;48.634;9.516;2023-04-03T00:10:31;3.10;99.90
8338;DHT22;4206;48.634;9.516;2023-04-03T00:12:58;3.10;99.90
8338;DHT22;4206;48.634;9.516;2023-04-03T00:15:24;3.10;99.90
8338;DHT22;4206;48.634;9.516;2023-04-03T00:17:51;3.00;99.90
8338;DHT22;4206;48.634;9.516;2023-04-03T00:20:18;2.90;99.90
8338;DHT22;4206;48.634;9.516;2023-04-03T00:22:46;2.90;99.90
8338;DHT22;4206;48.634;9.516;2023-04-03T00:25:13;2.90;99.90
8338;DHT22;4206;48.634;9.516;2023-04-03T00:27:40;2.80;99.90
8338;DHT22;4206;48.634;9.516;2023-04-03T00:30:09;2.70;99.90
8338;DHT22;4206;48.634;9.516;2023-04-03T00:32:37;2.70;99.90
8338;DHT22;4206;48.634;9.516;2023-04-03T00:35:05;2.70;99.90
8338;DHT22;4206;48.634;9.516;2023-04-03T00:37:32;2.60;99.90
8338;DHT22;4206;48.634;9.516;2023-04-03T00:40:00;2.60;99.90
8338;DHT22;4206;48.634;9.516;2023-04-03T00:42:27;2.60;99.90
8338;DHT22;4206;48.634;9.516;2023-04-03T00:47:23;2.60;99.90
8338;DHT22;4206;48.634;9.516;2023-04-03T00:49:52;2.60;99.90
8338;DHT22;4206;48.634;9.516;2023-04-03T00:52:25;2.60;99.90
8338;DHT22;4206;48.634;9.516;2023-04-03T00:54:56;2.60;99.90
8338;DHT22;4206;48.634;9.516;2023-04-03T00:57:23;2.60;99.90
8338;DHT22;4206;48.634;9.516;2023-04-03T00:59:55;2.50;99.90
8338;DHT22;4206;48.634;9.516;2023-04-03T01:02:23;2.50;99.90
8338;DHT22;4206;48.634;9.516;2023-04-03T01:04:50;2.50;99.90
8338;DHT22;4206;48.634;9.516;2023-04-03T01:07:22;2.50;99.90
8338;DHT22;4206;48.634;9.516;2023-04-03T01:09:53;2.50;99.90
8338;DHT22;4206;48.634;9.516;2023-04-03T01:12:28;2.50;99.90
8338;DHT22;4206;48.634;9.516;2023-04-03T01:14:58;2.50;99.90
8338;DHT22;4206;48.634;9.516;2023-04-03T01:17:34;2.60;99.90
8338;DHT22;4206;48.634;9.516;2023-04-03T01:28:06;2.60;99.90
8338;DHT22;4206;48.634;9.516;2023-04-03T01:30:45;2.60;99.90
8338;DHT22;4206;48.634;9.516;2023-04-03T01:33:14;2.50;99.90
8338;DHT22;4206;48.634;9.516;2023-04-03T01:35:42;2.50;99.90
8338;DHT22;4206;48.634;9.516;2023-04-03T01:38:09;2.50;99.90
8338;DHT22;4206;48.634;9.516;2023-04-03T01:40:36;2.50;99.90
8338;DHT22;4206;48.634;9.516;2023-04-03T01:43:04;2.50;99.90
8338;DHT22;4206;48.634;9.516;2023-04-03T01:45:31;2.50;99.90
8338;DHT22;4206;48.634;9.516;2023-04-03T01:48:01;2.50;99.90
8338;DHT22;4206;48.634;9.516;2023-04-03T01:50:28;2.50;99.90
8338;DHT22;4206;48.634;9.516;2023-04-03T01:52:55;2.50;99.90
8338;DHT22;4206;48.634;9.516;2023-04-03T01:55:22;2.50;99.90
8338;DHT22;4206;48.634;9.516;2023-04-03T01:57:48;2.50;99.90
8338;DHT22;4206;48.634;9.516;2023-04-03T02:00:16;2.60;99.90
8338;DHT22;4206;48.634;9.516;2023-04-03T02:02:43;2.50;99.90
8338;DHT22;4206;48.634;9.516;2023-04-03T02:05:10;2.50;99.90
8338;DHT22;4206;48.634;9.516;2023-04-03T02:07:37;2.50;99.90
8338;DHT22;4206;48.634;9.516;2023-04-03T02:10:04;2.50;99.90
8338;DHT22;4206;48.634;9.516;2023-04-03T02:12:31;2.50;99.90
8338;DHT22;4206;48.634;9.516;2023-04-03T02:14:58;2.50;99.90
8338;DHT22;4206;48.634;9.516;2023-04-03T02:17:25;2.50;99.90
8338;DHT22;4206;48.634;9.516;2023-04-03T02:19:51;2.40;99.90
8338;DHT22;4206;48.634;9.516;2023-04-03T02:22:18;2.40;99.90
8338;DHT22;4206;48.634;9.516;2023-04-03T02:24:46;2.40;99.90
8338;DHT22;4206;48.634;9.516;2023-04-03T02:27:13;2.40;99.90
8338;DHT22;4206;48.634;9.516;2023-04-03T02:29:40;2.40;99.90
8338;DHT22;4206;48.634;9.516;2023-04-03T02:32:08;2.40;99.90
8338;DHT22;4206;48.634;9.516;2023-04-03T02:34:35;2.40;99.90
8338;DHT22;4206;48.634;9.516;2023-04-03T02:37:02;2.50;99.90
8338;DHT22;4206;48.634;9.516;2023-04-03T02:39:29;2.50;99.90
8338;DHT22;4206;48.634;9.516;2023-04-03T02:41:56;2.50;99.90
8338;DHT22;4206;48.634;9.516;2023-04-03T02:44:23;2.50;99.90
8338;DHT22;4206;48.634;9.516;2023-04-03T02:46:50;2.50;99.90
8338;DHT22;4206;48.634;9.516;2023-04-03T02:49:17;2.50;99.90
8338;DHT22;4206;48.634;9.516;2023-04-03T02:51:44;2.50;99.90
8338;DHT22;4206;48.634;9.516;2023-04-03T02:54:11;2.50;99.90
8338;DHT22;4206;48.634;9.516;2023-04-03T02:56:37;2.50;99.90
8338;DHT22;4206;48.634;9.516;2023-04-03T02:59:04;2.60;99.90
8338;DHT22;4206;48.634;9.516;2023-04-03T04:02:07;2.80;99.90
8338;DHT22;4206;48.634;9.516;2023-04-03T04:04:34;2.80;99.90
8338;DHT22;4206;48.634;9.516;2023-04-03T04:07:02;2.80;99.90
8338;DHT22;4206;48.634;9.516;2023-04-03T04:09:29;2.80;99.90
8338;DHT22;4206;48.634;9.516;2023-04-03T04:11:56;2.80;99.90
8338;DHT22;4206;48.634;9.516;2023-04-03T04:14:23;2.80;99.90
8338;DHT22;4206;48.634;9.516;2023-04-03T04:16:49;2.90;99.90
8338;DHT22;4206;48.634;9.516;2023-04-03T04:19:16;2.80;99.90
8338;DHT22;4206;48.634;9.516;2023-04-03T04:21:43;2.90;99.90
8338;DHT22;4206;48.634;9.516;2023-04-03T04:24:10;2.90;99.90
8338;DHT22;4206;48.634;9.516;2023-04-03T04:26:37;2.90;99.90
8338;DHT22;4206;48.634;9.516;2023-04-03T04:29:04;2.90;99.90
8338;DHT22;4206;48.634;9.516;2023-04-03T04:31:31;2.90;99.90
8338;DHT22;4206;48.634;9.516;2023-04-03T04:33:58;2.90;99.90
8338;DHT22;4206;48.634;9.516;2023-04-03T04:36:24;2.90;99.90
8338;DHT22;4206;48.634;9.516;2023-04-03T04:38:51;2.80;99.90
8338;DHT22;4206;48.634;9.516;2023-04-03T04:41:20;2.80;99.90
8338;DHT22;4206;48.634;9.516;2023-04-03T04:43:49;2.80;99.90
8338;DHT22;4206;48.634;9.516;2023-04-03T04:46:17;2.80;99.90
8338;DHT22;4206;48.634;9.516;2023-04-03T04:48:44;2.80;99.90
8338;DHT22;4206;48.634;9.516;2023-04-03T04:51:11;2.80;99.90
8338;DHT22;4206;48.634;9.516;2023-04-03T04:53:38;2.70;99.90
8338;DHT22;4206;48.634;9.516;2023-04-03T04:56:05;2.70;99.90
8338;DHT22;4206;48.634;9.516;2023-04-03T04:58:32;2.70;99.90
8338;DHT22;4206;48.634;9.516;2023-04-03T05:03:27;2.70;99.90
8338;DHT22;4206;48.634;9.516;2023-04-03T05:05:54;2.70;99.90
8338;DHT22;4206;48.634;9.516;2023-04-03T05:08:21;2.70;99.90
8338;DHT22;4206;48.634;9.516;2023-04-03T05:10:48;2.80;99.90
8338;DHT22;4206;48.634;9.516;2023-04-03T05:13:15;2.70;99.90
8338;DHT22;4206;48.634;9.516;2023-04-03T05:15:42;2.70;99.90
8338;DHT22;4206;48.634;9.516;2023-04-03T05:18:09;2.80;99.90
8338;DHT22;4206;48.634;9.516;2023-04-03T05:20:36;2.70;99.90
8338;DHT22;4206;48.634;9.516;2023-04-03T05:23:03;2.80;99.90
8338;DHT22;4206;48.634;9.516;2023-04-03T05:25:30;2.80;99.90
8338;DHT22;4206;48.634;9.516;2023-04-03T05:27:57;2.80;99.90
8338;DHT22;4206;48.634;9.516;2023-04-03T05:30:24;2.80;99.90
8338;DHT22;4206;48.634;9.516;2023-04-03T05:32:51;2.80;99.90
8338;DHT22;4206;48.634;9.516;2023-04-03T05:35:18;2.80;99.90
8338;DHT22;4206;48.634;9.516;2023-04-03T05:37:46;2.90;99.90
8338;DHT22;4206;48.634;9.516;2023-04-03T05:40:12;2.90;99.90
8338;DHT22;4206;48.634;9.516;2023-04-03T05:42:39;2.90;99.90
8338;DHT22;4206;48.634;9.516;2023-04-03T05:45:06;3.00;99.90
8338;DHT22;4206;48.634;9.516;2023-04-03T05:47:33;2.90;99.90
8338;DHT22;4206;48.634;9.516;2023-04-03T05:50:00;3.00;99.90
8338;DHT22;4206;48.634;9.516;2023-04-03T05:52:29;3.10;99.90
8338;DHT22;4206;48.634;9.516;2023-04-03T05:54:57;3.10;99.90
8338;DHT22;4206;48.634;9.516;2023-04-03T05:57:24;3.10;99.90
8338;DHT22;4206;48.634;9.516;2023-04-03T05:59:51;3.20;99.90
8338;DHT22;4206;48.634;9.516;2023-04-03T06:02:20;3.20;99.90
8338;DHT22;4206;48.634;9.516;2023-04-03T06:04:48;3.30;99.90
8338;DHT22;4206;48.634;9.516;2023-04-03T06:07:18;3.30;99.90
8338;DHT22;4206;48.634;9.516;2023-04-03T06:09:46;3.40;99.90
8338;DHT22;4206;48.634;9.516;2023-04-03T06:12:13;3.40;99.90
8338;DHT22;4206;48.634;9.516;2023-04-03T06:14:41;3.40;99.90
8338;DHT22;4206;48.634;9.516;2023-04-03T06:17:08;3.40;99.90
8338;DHT22;4206;48.634;9.516;2023-04-03T06:19:35;3.40;99.90
8338;DHT22;4206;48.634;9.516;2023-04-03T06:22:03;3.50;99.90
8338;DHT22;4206;48.634;9.516;2023-04-03T06:24:30;3.50;99.90
8338;DHT22;4206;48.634;9.516;2023-04-03T06:26:57;3.50;99.90
8338;DHT22;4206;48.634;9.516;2023-04-03T06:29:24;3.60;99.90
8338;DHT22;4206;48.634;9.516;2023-04-03T06:31:51;3.70;99.90
8338;DHT22;4206;48.634;9.516;2023-04-03T06:34:18;3.70;99.90
8338;DHT22;4206;48.634;9.516;2023-04-03T06:36:45;3.80;99.90
8338;DHT22;4206;48.634;9.516;2023-04-03T06:39:15;3.90;99.90
8338;DHT22;4206;48.634;9.516;2023-04-03T06:41:42;4.00;99.90
8338;DHT22;4206;48.634;9.516;2023-04-03T06:44:09;4.00;99.90
8338;DHT22;4206;48.634;9.516;2023-04-03T06:46:38;4.10;99.90
8338;DHT22;4206;48.634;9.516;2023-04-03T06:49:05;4.10;99.90
8338;DHT22;4206;48.634;9.516;2023-04-03T06:51:35;4.30;99.90
8338;DHT22;4206;48.634;9.516;2023-04-03T06:54:03;4.20;99.90
8338;DHT22;4206;48.634;9.516;2023-04-03T06:56:30;4.30;99.90
8338;DHT22;4206;48.634;9.516;2023-04-03T06:58:57;4.40;99.90
8338;DHT22;4206;48.634;9.516;2023-04-03T07:01:26;4.50;99.90
8338;DHT22;4206;48.634;9.516;2023-04-03T07:03:55;4.60;99.90
8338;DHT22;4206;48.634;9.516;2023-04-03T07:06:23;4.60;99.90
8338;DHT22;4206;48.634;9.516;2023-04-03T07:08:49;4.80;99.90
8338;DHT22;4206;48.634;9.516;2023-04-03T07:11:16;4.90;99.90
8338;DHT22;4206;48.634;9.516;2023-04-03T07:13:43;4.90;99.90
8338;DHT22;4206;48.634;9.516;2023-04-03T07:16:11;5.10;99.90
8338;DHT22;4206;48.634;9.516;2023-04-03T07:18:38;5.20;99.90
8338;DHT22;4206;48.634;9.516;2023-04-03T07:21:05;5.30;99.90
8338;DHT22;4206;48.634;9.516;2023-04-03T07:23:32;5.50;99.90
8338;DHT22;4206;48.634;9.516;2023-04-03T07:26:00;5.60;99.90
8338;DHT22;4206;48.634;9.516;2023-04-03T07:28:30;5.80;99.90
8338;DHT22;4206;48.634;9.516;2023-04-03T07:31:03;6.10;99.90
8338;DHT22;4206;48.634;9.516;2023-04-03T07:33:31;6.30;99.90
8338;DHT22;4206;48.634;9.516;2023-04-03T07:35:58;6.40;99.90
8338;DHT22;4206;48.634;9.516;2023-04-03T07:38:25;6.50;99.90
8338;DHT22;4206;48.634;9.516;2023-04-03T07:40:52;6.70;99.90
8338;DHT22;4206;48.634;9.516;2023-04-03T07:43:21;6.90;99.90
8338;DHT22;4206;48.634;9.516;2023-04-03T07:45:49;7.10;99.90
8338;DHT22;4206;48.634;9.516;2023-04-03T07:48:19;7.10;99.90
8338;DHT22;4206;48.634;9.516;2023-04-03T07:50:46;7.40;99.90
8338;DHT22;4206;48.634;9.516;2023-04-03T07:53:14;7.50;99.90
8338;DHT22;4206;48.634;9.516;2023-04-03T07:55:41;7.60;99.90
8338;DHT22;4206;48.634;9.516;2023-04-03T07:58:12;7.80;99.90
8338;DHT22;4206;48.634;9.516;2023-04-03T08:00:39;8.10;99.90
8338;DHT22;4206;48.634;9.516;2023-04-03T08:03:07;8.00;99.90
8338;DHT22;4206;48.634;9.516;2023-04-03T08:05:40;8.20;99.90
8338;DHT22;4206;48.634;9.516;2023-04-03T08:08:08;8.20;99.90
8338;DHT22;4206;48.634;9.516;2023-04-03T08:10:35;8.30;99.90
8338;DHT22;4206;48.634;9.516;2023-04-03T08:13:03;8.40;99.90
8338;DHT22;4206;48.634;9.516;2023-04-03T08:15:30;8.50;99.90
8338;DHT22;4206;48.634;9.516;2023-04-03T08:17:59;8.60;99.90
8338;DHT22;4206;48.634;9.516;2023-04-03T08:20:26;8.20;99.90
8338;DHT22;4206;48.634;9.516;2023-04-03T08:22:53;8.10;99.90
8338;DHT22;4206;48.634;9.516;2023-04-03T08:25:21;8.00;99.90
8338;DHT22;4206;48.634;9.516;2023-04-03T08:27:48;8.40;99.90
8338;DHT22;4206;48.634;9.516;2023-04-03T08:30:15;8.30;99.90
8338;DHT22;4206;48.634;9.516;2023-04-03T08:32:42;8.00;99.90
8338;DHT22;4206;48.634;9.516;2023-04-03T08:35:11;8.10;99.90
8338;DHT22;4206;48.634;9.516;2023-04-03T08:37:39;7.70;99.90
8338;DHT22;4206;48.634;9.516;2023-04-03T08:40:10;7.50;99.90
8338;DHT22;4206;48.634;9.516;2023-04-03T08:45:47;7.30;99.90
8338;DHT22;4206;48.634;9.516;2023-04-03T08:48:23;7.20;99.90
8338;DHT22;4206;48.634;9.516;2023-04-03T08:50:56;7.20;99.90
8338;DHT22;4206;48.634;9.516;2023-04-03T08:53:32;7.00;99.90
8338;DHT22;4206;48.634;9.516;2023-04-03T08:56:06;7.10;99.90
8338;DHT22;4206;48.634;9.516;2023-04-03T08:58:48;6.60;99.90
8338;DHT22;4206;48.634;9.516;2023-04-03T09:01:20;6.80;99.90
8338;DHT22;4206;48.634;9.516;2023-04-03T09:03:48;6.50;99.90
8338;DHT22;4206;48.634;9.516;2023-04-03T09:20:08;6.30;99.90
8338;DHT22;4206;48.634;9.516;2023-04-03T09:22:41;6.30;99.90
8338;DHT22;4206;48.634;9.516;2023-04-03T09:25:21;6.50;99.90
8338;DHT22;4206;48.634;9.516;2023-04-03T09:27:49;6.60;99.90
8338;DHT22;4206;48.634;9.516;2023-04-03T09:30:21;6.80;99.90
8338;DHT22;4206;48.634;9.516;2023-04-03T09:32:52;7.00;99.90
8338;DHT22;4206;48.634;9.516;2023-04-03T09:35:35;7.20;99.90
8338;DHT22;4206;48.634;9.516;2023-04-03T09:38:15;7.40;99.90
8338;DHT22;4206;48.634;9.516;2023-04-03T09:40:44;7.80;99.90
8338;DHT22;4206;48.634;9.516;2023-04-03T09:43:29;7.90;99.90
8338;DHT22;4206;48.634;9.516;2023-04-03T09:46:18;8.10;99.90
8338;DHT22;4206;48.634;9.516;2023-04-03T09:48:52;8.00;99.90
8338;DHT22;4206;48.634;9.516;2023-04-03T09:51:34;8.20;99.90
8338;DHT22;4206;48.634;9.516;2023-04-03T09:57:08;7.70;99.90
8338;DHT22;4206;48.634;9.516;2023-04-03T10:04:40;8.00;99.90
8338;DHT22;4206;48.634;9.516;2023-04-03T10:07:31;8.00;99.90
8338;DHT22;4206;48.634;9.516;2023-04-03T10:10:03;8.20;99.90
8338;DHT22;4206;48.634;9.516;2023-04-03T10:12:30;8.00;99.90
8338;DHT22;4206;48.634;9.516;2023-04-03T10:14:59;7.90;99.90
8338;DHT22;4206;48.634;9.516;2023-04-03T10:17:46;7.80;99.90
8338;DHT22;4206;48.634;9.516;2023-04-03T10:20:30;7.70;99.90
8338;DHT22;4206;48.634;9.516;2023-04-03T10:23:17;7.70;99.90
8338;DHT22;4206;48.634;9.516;2023-04-03T10:28:43;7.20;99.90
8338;DHT22;4206;48.634;9.516;2023-04-03T10:31:37;7.30;99.90
8338;DHT22;4206;48.634;9.516;2023-04-03T10:36:42;6.80;99.90
8338;DHT22;4206;48.634;9.516;2023-04-03T10:42:02;7.00;99.90
8338;DHT22;4206;48.634;9.516;2023-04-03T10:47:17;7.10;99.90
8338;DHT22;4206;48.634;9.516;2023-04-03T10:55:34;7.70;99.90
8338;DHT22;4206;48.634;9.516;2023-04-03T10:58:03;7.80;99.90
8338;DHT22;4206;48.634;9.516;2023-04-03T11:00:37;8.00;99.90
8338;DHT22;4206;48.634;9.516;2023-04-03T11:05:54;8.30;99.90
8338;DHT22;4206;48.634;9.516;2023-04-03T11:08:38;8.10;99.90
8338;DHT22;4206;48.634;9.516;2023-04-03T11:11:11;7.90;99.90
8338;DHT22;4206;48.634;9.516;2023-04-03T11:13:46;7.90;99.90
8338;DHT22;4206;48.634;9.516;2023-04-03T11:16:21;7.80;99.90
8338;DHT22;4206;48.634;9.516;2023-04-03T11:18:54;7.90;99.90
8338;DHT22;4206;48.634;9.516;2023-04-03T11:21:31;8.10;99.90
8338;DHT22;4206;48.634;9.516;2023-04-03T11:24:04;8.30;99.90
8338;DHT22;4206;48.634;9.516;2023-04-03T11:26:39;8.40;99.90
8338;DHT22;4206;48.634;9.516;2023-04-03T11:29:10;8.50;99.90
8338;DHT22;4206;48.634;9.516;2023-04-03T11:34:37;8.40;99.90
8338;DHT22;4206;48.634;9.516;2023-04-03T11:37:33;8.40;99.90
8338;DHT22;4206;48.634;9.516;2023-04-03T11:40:20;8.50;99.90
8338;DHT22;4206;48.634;9.516;2023-04-03T11:42:52;8.60;99.90
8338;DHT22;4206;48.634;9.516;2023-04-03T11:47:54;8.30;99.90
8338;DHT22;4206;48.634;9.516;2023-04-03T12:03:35;8.20;99.90
8338;DHT22;4206;48.634;9.516;2023-04-03T12:16:41;7.80;99.90
8338;DHT22;4206;48.634;9.516;2023-04-03T12:19:29;7.60;99.90
8338;DHT22;4206;48.634;9.516;2023-04-03T12:22:11;7.40;99.90
8338;DHT22;4206;48.634;9.516;2023-04-03T12:24:42;7.30;99.90
8338;DHT22;4206;48.634;9.516;2023-04-03T12:27:26;7.40;99.90
8338;DHT22;4206;48.634;9.516;2023-04-03T12:30:14;7.50;99.90
8338;DHT22;4206;48.634;9.516;2023-04-03T12:35:41;7.70;99.90
8338;DHT22;4206;48.634;9.516;2023-04-03T12:43:54;8.10;99.90
8338;DHT22;4206;48.634;9.516;2023-04-03T12:46:37;8.20;99.90
8338;DHT22;4206;48.634;9.516;2023-04-03T12:49:33;8.30;99.90
8338;DHT22;4206;48.634;9.516;2023-04-03T12:52:05;8.30;99.90
8338;DHT22;4206;48.634;9.516;2023-04-03T12:54:38;8.10;99.90
8338;DHT22;4206;48.634;9.516;2023-04-03T12:57:25;7.90;99.90
8338;DHT22;4206;48.634;9.516;2023-04-03T12:59:53;7.60;99.90
8338;DHT22;4206;48.634;9.516;2023-04-03T13:04:57;7.50;99.90
8338;DHT22;4206;48.634;9.516;2023-04-03T13:07:30;7.50;99.90
8338;DHT22;4206;48.634;9.516;2023-04-03T13:10:09;7.70;99.90
8338;DHT22;4206;48.634;9.516;2023-04-03T13:15:18;7.80;99.90
8338;DHT22;4206;48.634;9.516;2023-04-03T13:17:46;7.90;99.90
8338;DHT22;4206;48.634;9.516;2023-04-03T13:25:20;8.10;99.90
8338;DHT22;4206;48.634;9.516;2023-04-03T13:27:47;8.20;99.90
8338;DHT22;4206;48.634;9.516;2023-04-03T13:30:31;8.40;99.90
8338;DHT22;4206;48.634;9.516;2023-04-03T13:33:01;8.50;99.90
8338;DHT22;4206;48.634;9.516;2023-04-03T13:35:31;8.60;99.90
8338;DHT22;4206;48.634;9.516;2023-04-03T13:38:04;8.60;99.90
8338;DHT22;4206;48.634;9.516;2023-04-03T13:40:32;8.60;99.90
8338;DHT22;4206;48.634;9.516;2023-04-03T13:43:30;8.70;99.90
8338;DHT22;4206;48.634;9.516;2023-04-03T13:48:39;8.40;99.90
8338;DHT22;4206;48.634;9.516;2023-04-03T13:53:44;8.30;99.90
8338;DHT22;4206;48.634;9.516;2023-04-03T13:56:21;8.20;99.90
8338;DHT22;4206;48.634;9.516;2023-04-03T13:58:56;8.00;99.90
8338;DHT22;4206;48.634;9.516;2023-04-03T14:01:24;8.20;99.90
8338;DHT22;4206;48.634;9.516;2023-04-03T14:03:55;8.10;99.90
8338;DHT22;4206;48.634;9.516;2023-04-03T14:06:23;8.20;99.90
8338;DHT22;4206;48.634;9.516;2023-04-03T14:08:50;8.30;99.90
8338;DHT22;4206;48.634;9.516;2023-04-03T14:11:22;8.50;99.90
8338;DHT22;4206;48.634;9.516;2023-04-03T14:13:50;8.50;99.90
8338;DHT22;4206;48.634;9.516;2023-04-03T14:16:21;8.40;99.90
8338;DHT22;4206;48.634;9.516;2023-04-03T14:18:50;8.60;99.90
8338;DHT22;4206;48.634;9.516;2023-04-03T14:21:19;8.60;99.90
8338;DHT22;4206;48.634;9.516;2023-04-03T14:23:46;8.50;99.90
8338;DHT22;4206;48.634;9.516;2023-04-03T14:26:18;8.30;99.90
8338;DHT22;4206;48.634;9.516;2023-04-03T14:28:46;8.10;99.90
8338;DHT22;4206;48.634;9.516;2023-04-03T14:31:15;8.00;99.90
8338;DHT22;4206;48.634;9.516;2023-04-03T14:33:43;7.90;99.90
8338;DHT22;4206;48.634;9.516;2023-04-03T14:36:17;7.80;99.90
8338;DHT22;4206;48.634;9.516;2023-04-03T14:38:45;7.70;99.90
8338;DHT22;4206;48.634;9.516;2023-04-03T14:41:13;7.60;99.90
8338;DHT22;4206;48.634;9.516;2023-04-03T14:43:43;7.70;99.90
8338;DHT22;4206;48.634;9.516;2023-04-03T14:46:17;7.80;99.90
8338;DHT22;4206;48.634;9.516;2023-04-03T14:48:44;8.00;99.90
8338;DHT22;4206;48.634;9.516;2023-04-03T14:51:12;8.00;99.90
8338;DHT22;4206;48.634;9.516;2023-04-03T14:53:41;8.10;99.90
8338;DHT22;4206;48.634;9.516;2023-04-03T14:56:14;8.10;99.90
8338;DHT22;4206;48.634;9.516;2023-04-03T14:58:42;8.00;99.90
8338;DHT22;4206;48.634;9.516;2023-04-03T15:01:11;8.30;99.90
8338;DHT22;4206;48.634;9.516;2023-04-03T15:03:38;8.40;99.90
8338;DHT22;4206;48.634;9.516;2023-04-03T15:06:05;8.70;99.90
8338;DHT22;4206;48.634;9.516;2023-04-03T15:08:32;8.90;99.90
8338;DHT22;4206;48.634;9.516;2023-04-03T15:10:59;8.90;99.90
8338;DHT22;4206;48.634;9.516;2023-04-03T15:13:27;8.70;99.90
8338;DHT22;4206;48.634;9.516;2023-04-03T15:15:54;8.70;99.90
8338;DHT22;4206;48.634;9.516;2023-04-03T15:18:24;8.70;99.90
8338;DHT22;4206;48.634;9.516;2023-04-03T15:20:56;7.60;99.90
8338;DHT22;4206;48.634;9.516;2023-04-03T15:23:23;8.20;99.90
8338;DHT22;4206;48.634;9.516;2023-04-03T15:25:53;8.20;99.90
8338;DHT22;4206;48.634;9.516;2023-04-03T15:28:29;8.10;99.90
8338;DHT22;4206;48.634;9.516;2023-04-03T15:30:57;8.00;99.90
8338;DHT22;4206;48.634;9.516;2023-04-03T15:33:24;8.00;99.90
8338;DHT22;4206;48.634;9.516;2023-04-03T15:35:51;8.00;99.90
8338;DHT22;4206;48.634;9.516;2023-04-03T15:38:21;7.90;99.90
8338;DHT22;4206;48.634;9.516;2023-04-03T15:40:48;7.90;99.90
8338;DHT22;4206;48.634;9.516;2023-04-03T15:43:15;7.90;99.90
8338;DHT22;4206;48.634;9.516;2023-04-03T15:45:43;8.00;99.70
8338;DHT22;4206;48.634;9.516;2023-04-03T15:48:11;7.90;99.80
8338;DHT22;4206;48.634;9.516;2023-04-03T15:50:39;7.80;99.00
8338;DHT22;4206;48.634;9.516;2023-04-03T15:53:07;7.60;99.40
8338;DHT22;4206;48.634;9.516;2023-04-03T15:55:36;7.60;99.90
8338;DHT22;4206;48.634;9.516;2023-04-03T15:58:03;7.60;99.90
8338;DHT22;4206;48.634;9.516;2023-04-03T16:00:37;7.80;99.90
8338;DHT22;4206;48.634;9.516;2023-04-03T16:03:09;8.00;99.90
8338;DHT22;4206;48.634;9.516;2023-04-03T16:05:38;8.00;99.90
8338;DHT22;4206;48.634;9.516;2023-04-03T16:08:05;7.90;99.90
8338;DHT22;4206;48.634;9.516;2023-04-03T16:10:35;7.90;99.90
8338;DHT22;4206;48.634;9.516;2023-04-03T16:13:03;7.80;99.90
8338;DHT22;4206;48.634;9.516;2023-04-03T16:15:30;7.70;99.90
8338;DHT22;4206;48.634;9.516;2023-04-03T16:17:59;7.50;99.90
8338;DHT22;4206;48.634;9.516;2023-04-03T16:20:26;7.50;99.90
8338;DHT22;4206;48.634;9.516;2023-04-03T16:22:54;7.50;99.90
8338;DHT22;4206;48.634;9.516;2023-04-03T16:25:22;7.50;99.90
8338;DHT22;4206;48.634;9.516;2023-04-03T16:27:49;7.50;99.90
8338;DHT22;4206;48.634;9.516;2023-04-03T16:30:17;7.60;99.90
8338;DHT22;4206;48.634;9.516;2023-04-03T16:32:44;7.60;99.90
8338;DHT22;4206;48.634;9.516;2023-04-03T16:35:11;7.50;99.90
8338;DHT22;4206;48.634;9.516;2023-04-03T16:37:38;7.20;99.90
8338;DHT22;4206;48.634;9.516;2023-04-03T16:40:07;7.20;99.90
8338;DHT22;4206;48.634;9.516;2023-04-03T16:42:34;7.10;99.90
8338;DHT22;4206;48.634;9.516;2023-04-03T16:45:04;7.00;99.90
8338;DHT22;4206;48.634;9.516;2023-04-03T16:47:32;7.00;99.90
8338;DHT22;4206;48.634;9.516;2023-04-03T16:49:59;7.00;99.90
8338;DHT22;4206;48.634;9.516;2023-04-03T16:52:27;6.80;99.90
8338;DHT22;4206;48.634;9.516;2023-04-03T16:54:53;6.60;99.90
8338;DHT22;4206;48.634;9.516;2023-04-03T16:57:23;6.50;99.90
8338;DHT22;4206;48.634;9.516;2023-04-03T16:59:52;6.40;99.90
8338;DHT22;4206;48.634;9.516;2023-04-03T17:02:20;6.30;99.90
8338;DHT22;4206;48.634;9.516;2023-04-03T17:04:47;6.10;99.90
8338;DHT22;4206;48.634;9.516;2023-04-03T17:07:18;6.00;99.90
8338;DHT22;4206;48.634;9.516;2023-04-03T17:09:46;5.90;99.90
8338;DHT22;4206;48.634;9.516;2023-04-03T17:12:13;5.90;99.90
8338;DHT22;4206;48.634;9.516;2023-04-03T17:14:41;5.90;99.90
8338;DHT22;4206;48.634;9.516;2023-04-03T17:17:08;5.80;99.90
8338;DHT22;4206;48.634;9.516;2023-04-03T17:19:36;5.80;99.90
8338;DHT22;4206;48.634;9.516;2023-04-03T17:22:04;5.60;99.90
8338;DHT22;4206;48.634;9.516;2023-04-03T17:24:31;5.70;99.90
8338;DHT22;4206;48.634;9.516;2023-04-03T17:26:58;5.60;99.90
8338;DHT22;4206;48.634;9.516;2023-04-03T17:29:25;5.60;99.90
8338;DHT22;4206;48.634;9.516;2023-04-03T17:31:51;5.60;99.90
8338;DHT22;4206;48.634;9.516;2023-04-03T17:34:18;5.60;99.90
8338;DHT22;4206;48.634;9.516;2023-04-03T17:36:46;5.40;99.90
8338;DHT22;4206;48.634;9.516;2023-04-03T17:39:13;5.30;99.90
8338;DHT22;4206;48.634;9.516;2023-04-03T17:41:40;5.30;99.90
8338;DHT22;4206;48.634;9.516;2023-04-03T17:44:07;5.20;99.90
8338;DHT22;4206;48.634;9.516;2023-04-03T17:46:34;5.10;99.90
8338;DHT22;4206;48.634;9.516;2023-04-03T17:49:01;5.00;99.90
8338;DHT22;4206;48.634;9.516;2023-04-03T17:51:30;5.00;99.90
8338;DHT22;4206;48.634;9.516;2023-04-03T17:54:01;4.90;99.90
8338;DHT22;4206;48.634;9.516;2023-04-03T17:56:28;4.90;99.90
8338;DHT22;4206;48.634;9.516;2023-04-03T17:58:56;4.90;99.90
8338;DHT22;4206;48.634;9.516;2023-04-03T18:01:26;4.90;99.90
8338;DHT22;4206;48.634;9.516;2023-04-03T18:03:56;4.90;99.90
8338;DHT22;4206;48.634;9.516;2023-04-03T18:06:29;4.90;99.90
8338;DHT22;4206;48.634;9.516;2023-04-03T18:09:04;4.90;99.90
8338;DHT22;4206;48.634;9.516;2023-04-03T18:11:33;4.80;99.90
8338;DHT22;4206;48.634;9.516;2023-04-03T18:14:01;4.80;99.90
8338;DHT22;4206;48.634;9.516;2023-04-03T18:16:30;4.80;99.90
8338;DHT22;4206;48.634;9.516;2023-04-03T18:18:57;4.70;99.90
8338;DHT22;4206;48.634;9.516;2023-04-03T18:21:44;4.70;99.90
8338;DHT22;4206;48.634;9.516;2023-04-03T18:24:15;4.70;99.90
8338;DHT22;4206;48.634;9.516;2023-04-03T18:26:46;4.70;99.90
8338;DHT22;4206;48.634;9.516;2023-04-03T18:29:13;4.70;99.90
8338;DHT22;4206;48.634;9.516;2023-04-03T18:31:45;4.90;99.90
8338;DHT22;4206;48.634;9.516;2023-04-03T18:34:13;4.60;99.90
8338;DHT22;4206;48.634;9.516;2023-04-03T18:36:40;4.50;99.90
8338;DHT22;4206;48.634;9.516;2023-04-03T18:39:07;4.50;99.90
8338;DHT22;4206;48.634;9.516;2023-04-03T18:41:36;4.40;99.90
8338;DHT22;4206;48.634;9.516;2023-04-03T18:44:05;4.20;99.90
8338;DHT22;4206;48.634;9.516;2023-04-03T18:46:33;4.10;99.90
8338;DHT22;4206;48.634;9.516;2023-04-03T18:49:00;4.10;99.90
8338;DHT22;4206;48.634;9.516;2023-04-03T18:51:27;4.00;99.90
8338;DHT22;4206;48.634;9.516;2023-04-03T18:53:54;4.00;99.90
8338;DHT22;4206;48.634;9.516;2023-04-03T18:56:21;4.00;99.90
8338;DHT22;4206;48.634;9.516;2023-04-03T18:58:48;4.00;99.90
8338;DHT22;4206;48.634;9.516;2023-04-03T19:01:16;4.00;99.90
8338;DHT22;4206;48.634;9.516;2023-04-03T19:03:43;4.00;99.90
8338;DHT22;4206;48.634;9.516;2023-04-03T19:06:10;4.00;99.90
8338;DHT22;4206;48.634;9.516;2023-04-03T19:08:38;4.00;99.90
8338;DHT22;4206;48.634;9.516;2023-04-03T19:11:05;4.00;99.90
8338;DHT22;4206;48.634;9.516;2023-04-03T19:13:32;4.00;99.90
8338;DHT22;4206;48.634;9.516;2023-04-03T19:16:00;4.00;99.90
8338;DHT22;4206;48.634;9.516;2023-04-03T19:18:28;3.90;99.90
8338;DHT22;4206;48.634;9.516;2023-04-03T19:20:55;3.90;99.90
8338;DHT22;4206;48.634;9.516;2023-04-03T19:23:23;3.90;99.90